ADDS METAR Data INFO
IDs: Format: Raw Decoded Include TAF

Data at: 0715 UTC 24 Jun 2018

KOTG 240656Z AUTO 16008KT 10SM CLR 19/17 A2980 RMK AO2 LTG DSNT N SLP087 T01890172
KOTG 240556Z AUTO 16009KT 10SM SCT120 19/17 A2980 RMK AO2 SLP087 T01940172 10239 20189 402440139 55001
KOTG 240456Z AUTO 17007KT 10SM CLR 19/17 A2980 RMK AO2 SLP087 T01890167
KOTG 240356Z AUTO 13005KT 10SM FEW075 19/17 A2980 RMK AO2 SLP085 T01940172
KOTG 240256Z AUTO 17006KT 10SM CLR 20/18 A2981 RMK AO2 SLP088 T02000178 53017 TSNO
KOTG 240156Z AUTO 17005KT 10SM CLR 21/18 A2978 RMK AO2 SLP079 T02110178
KOTG 240056Z AUTO 16006KT 10SM FEW040 23/18 A2976 RMK AO2 SLP074 T02280178
KOTG 232356Z AUTO 16008KT 10SM OVC060 23/17 A2975 RMK AO2 SLP072 T02330172 10244 20222 56006 TSNO
KOTG 232256Z AUTO 15009KT 10SM FEW035 BKN044 BKN055 24/17 A2976 RMK AO2 SLP074 T02390167
KOTG 232156Z AUTO 16009KT 10SM FEW060 24/17 A2976 RMK AO2 SLP075 T02390167
KOTG 232056Z AUTO 17007KT 10SM BKN034 BKN045 24/17 A2977 RMK AO2 SLP079 T02390172 58008
KOTG 231956Z AUTO 19011KT 10SM SCT036 BKN050 23/17 A2978 RMK AO2 SLP082 T02330167
KOTG 231656Z AUTO 16009KT 10SM FEW028 22/16 A2980 RMK AO2 SLP089 T02220161
KOTG 231556Z AUTO 16007KT 10SM CLR 22/16 A2981 RMK AO2 SLP089 T02170161
KOTG 231456Z AUTO 17006KT 10SM FEW002 21/17 A2981 RMK AO2 SLP089 T02110167 58001
KOTG 231356Z AUTO 21004KT 10SM CLR 20/16 A2982 RMK AO2 SLP092 T02000161
KOTG 231256Z AUTO 22004KT 10SM CLR 18/16 A2981 RMK AO2 SLP090 T01780156
KOTG 231156Z AUTO 23003KT 8SM CLR 16/15 A2981 RMK AO2 SLP091 T01560150 10172 20139 53002
KOTG 231056Z AUTO 19003KT 7SM FEW002 14/14 A2980 RMK AO2 SLP089 T01440139
KOTG 230956Z AUTO 26004KT 10SM CLR 14/14 A2979 RMK AO2 SLP087 T01440139
KOTG 230856Z AUTO 13004KT 9SM CLR 15/14 A2980 RMK AO2 SLP090 T01500139 58015
KOTG 230756Z AUTO 00000KT 10SM CLR 16/14 A2982 RMK AO2 SLP096 T01560144
KOTG 230656Z AUTO 00000KT 10SM CLR 17/15 A2984 RMK AO2 SLP100 T01670150
KOTG 230556Z AUTO 22004KT 10SM SCT065 17/15 A2985 RMK AO2 SLP105 T01670150 10228 20161 402330150 50008
KOTG 230456Z AUTO 22004KT 10SM CLR 16/16 A2986 RMK AO2 SLP107 T01610156
KOTG 230356Z AUTO 18003KT 10SM CLR 18/16 A2983 RMK AO2 SLP097 T01780156
KOTG 230256Z AUTO 00000KT 10SM CLR 19/16 A2982 RMK AO2 SLP096 T01940156 56005
KOTG 230156Z AUTO 00000KT 10SM CLR 21/17 A2983 RMK AO2 SLP098 T02060167
KOTG 230113Z AUTO 21003KT 10SM FEW002 22/16 A2983 RMK AO2
KOTG 230056Z AUTO 19004KT 9SM CLR 23/16 A2983 RMK AO2 SLP097 T02280161
KOTG 222356Z AUTO 00000KT 9SM CLR 23/16 A2984 RMK AO2 SLP101 T02280161 10233 20217 58014
KOTG 222256Z AUTO 00000KT 10SM FEW026 23/15 A2985 RMK AO2 SLP106 T02280150
KOTG 222156Z AUTO 07003KT 10SM CLR 23/17 A2987 RMK AO2 SLP113 T02280167
KOTG 222056Z AUTO 00000KT 10SM SCT002 23/17 A2988 RMK AO2 SLP115 T02280172 58013
KOTG 222035Z AUTO 00000KT 10SM FEW002 22/17 A2989 RMK AO2
KOTG 221956Z AUTO 31003KT 10SM CLR 22/17 A2990 RMK AO2 SLP122 T02170167